createdAt,value
2018-04-09T00:00:37.498Z,14.13
2018-04-09T00:03:05.749Z,13.07
2018-04-09T00:05:34.776Z,13.27
2018-04-09T00:08:03.034Z,12.93
2018-04-09T00:10:31.307Z,14.53
2018-04-09T00:12:59.592Z,14.27
2018-04-09T00:15:27.854Z,13.93
2018-04-09T00:17:56.114Z,12.93
2018-04-09T00:20:25.144Z,13.47
2018-04-09T00:22:53.409Z,13.70
2018-04-09T00:25:21.673Z,13.00
2018-04-09T00:27:50.697Z,14.17
2018-04-09T00:30:18.970Z,14.47
2018-04-09T00:32:47.230Z,13.70
2018-04-09T00:35:15.489Z,14.00
2018-04-09T00:37:44.514Z,14.43
2018-04-09T00:40:12.781Z,11.73
2018-04-09T00:42:41.046Z,13.00
2018-04-09T00:45:09.312Z,12.57
2018-04-09T00:47:37.570Z,13.23
2018-04-09T00:50:06.606Z,13.67
2018-04-09T00:52:34.854Z,12.93
2018-04-09T00:55:03.889Z,14.90
2018-04-09T00:57:32.151Z,13.57
2018-04-09T01:00:00.417Z,13.13
2018-04-09T01:02:28.677Z,13.17
2018-04-09T01:04:57.702Z,13.20
2018-04-09T01:07:25.971Z,12.57
2018-04-09T01:09:54.226Z,13.30
2018-04-09T01:12:23.258Z,13.57
2018-04-09T01:14:51.505Z,14.47
2018-04-09T01:17:19.772Z,13.10
2018-04-09T01:19:48.036Z,14.00
2018-04-09T01:22:17.055Z,13.30
2018-04-09T01:24:45.301Z,13.57
2018-04-09T01:27:14.333Z,13.07
2018-04-09T01:29:42.582Z,14.57
2018-04-09T01:32:11.612Z,14.50
2018-04-09T01:34:39.867Z,13.40
2018-04-09T01:37:08.125Z,14.20
2018-04-09T01:39:36.386Z,14.73
2018-04-09T01:42:05.418Z,14.20
2018-04-09T01:44:33.671Z,15.67
2018-04-09T01:47:02.687Z,14.97
2018-04-09T01:49:30.937Z,14.97
2018-04-09T01:51:59.227Z,14.10
2018-04-09T01:54:27.470Z,15.13
2018-04-09T01:56:55.720Z,14.30
2018-04-09T01:59:23.982Z,14.97
2018-04-09T02:01:52.228Z,14.30
2018-04-09T02:04:20.486Z,15.13
2018-04-09T02:06:49.497Z,13.80
2018-04-09T02:09:17.747Z,16.50
2018-04-09T02:11:46.758Z,15.20
2018-04-09T02:14:15.019Z,15.70
2018-04-09T02:16:44.031Z,15.80
2018-04-09T02:19:12.289Z,15.50
2018-04-09T02:21:41.301Z,16.40
2018-04-09T02:24:09.556Z,16.33
2018-04-09T02:26:38.576Z,14.23
2018-04-09T02:29:06.828Z,15.00
2018-04-09T02:31:35.842Z,14.53
2018-04-09T02:34:04.111Z,15.50
2018-04-09T02:36:32.353Z,14.97
2018-04-09T02:39:00.595Z,15.00
2018-04-09T02:41:28.852Z,14.00
2018-04-09T02:43:57.098Z,14.57
2018-04-09T02:46:26.104Z,15.97
2018-04-09T02:48:54.382Z,16.20
2018-04-09T02:51:23.374Z,15.97
2018-04-09T02:53:51.627Z,15.67
2018-04-09T02:56:20.650Z,14.73
2018-04-09T02:58:48.894Z,14.20
2018-04-09T03:01:17.151Z,15.47
2018-04-09T03:03:45.397Z,15.83
2018-04-09T03:06:13.650Z,14.53
2018-04-09T03:08:41.898Z,14.07
2018-04-09T03:11:10.911Z,15.67
2018-04-09T03:13:39.168Z,15.20
2018-04-09T03:16:07.414Z,14.20
2018-04-09T03:18:35.658Z,15.37
2018-04-09T03:21:03.909Z,15.67
2018-04-09T03:23:32.159Z,15.20
2018-04-09T03:26:00.430Z,16.80
2018-04-09T03:28:28.672Z,15.10
2018-04-09T03:30:56.922Z,14.70
2018-04-09T03:33:25.184Z,14.93
2018-04-09T03:35:53.429Z,15.87
2018-04-09T03:38:21.682Z,15.43
2018-04-09T03:40:49.939Z,14.73
2018-04-09T03:43:18.188Z,16.13
2018-04-09T03:45:46.439Z,16.33
2018-04-09T03:48:14.690Z,16.20
2018-04-09T03:50:42.938Z,17.20
2018-04-09T03:53:11.193Z,16.30
2018-04-09T03:55:39.443Z,15.87
2018-04-09T03:58:08.465Z,14.40
2018-04-09T04:00:36.713Z,16.13
2018-04-09T04:03:05.739Z,14.50
2018-04-09T04:05:33.981Z,17.47
2018-04-09T04:08:02.998Z,16.30
2018-04-09T04:10:31.240Z,17.20
2018-04-09T04:12:59.498Z,17.03
2018-04-09T04:15:45.625Z,18.20
2018-04-09T04:18:27.198Z,17.43
2018-04-09T04:21:14.101Z,16.33
2018-04-09T04:23:42.349Z,16.03
2018-04-09T04:26:10.601Z,15.83
2018-04-09T04:28:38.860Z,16.60
2018-04-09T04:31:07.129Z,17.60
2018-04-09T04:33:35.365Z,16.13
2018-04-09T04:36:03.614Z,16.83
2018-04-09T04:38:31.868Z,15.53
2018-04-09T04:41:00.118Z,15.40
2018-04-09T04:43:29.133Z,17.40
2018-04-09T04:45:57.380Z,16.70
2018-04-09T04:48:25.639Z,16.73
2018-04-09T04:50:53.969Z,16.87
2018-04-09T04:53:22.215Z,19.43
2018-04-09T04:55:51.236Z,17.53
2018-04-09T04:58:19.485Z,18.00
2018-04-09T05:00:48.500Z,17.77
2018-04-09T05:03:16.748Z,18.50
2018-04-09T05:05:45.777Z,18.80
2018-04-09T05:08:14.019Z,19.03
2018-04-09T05:10:43.040Z,17.37
2018-04-09T05:13:11.278Z,17.77
2018-04-09T05:15:39.534Z,17.67
2018-04-09T05:18:07.786Z,17.07
2018-04-09T05:20:36.089Z,15.17
2018-04-09T05:23:04.290Z,17.10
2018-04-09T05:25:33.316Z,15.90
2018-04-09T05:28:01.552Z,16.37
2018-04-09T05:30:29.806Z,16.80
2018-04-09T05:32:58.055Z,15.60
2018-04-09T05:35:26.299Z,14.60
2018-04-09T05:37:55.322Z,16.40
2018-04-09T05:40:23.566Z,15.30
2018-04-09T05:42:52.585Z,15.10
2018-04-09T05:45:20.834Z,15.20
2018-04-09T05:47:49.856Z,15.03
2018-04-09T05:50:18.096Z,15.80
2018-04-09T05:52:47.114Z,16.17
2018-04-09T05:55:15.357Z,14.70
2018-04-09T05:57:44.378Z,14.40
2018-04-09T06:00:12.639Z,15.03
2018-04-09T06:02:41.654Z,17.37
2018-04-09T06:05:09.898Z,16.57
2018-04-09T06:07:38.917Z,15.43
2018-04-09T06:10:07.174Z,15.10
2018-04-09T06:12:36.219Z,14.50
2018-04-09T06:15:04.463Z,15.83
2018-04-09T06:17:32.713Z,15.83
2018-04-09T06:20:01.730Z,14.93
2018-04-09T06:22:29.985Z,15.73
2018-04-09T06:24:59.006Z,15.93
2018-04-09T06:27:27.256Z,14.90
2018-04-09T06:29:56.273Z,15.27
2018-04-09T06:32:24.529Z,15.37
2018-04-09T06:34:53.542Z,16.37
2018-04-09T06:37:21.797Z,15.07
2018-04-09T06:39:50.819Z,14.93
2018-04-09T06:42:19.068Z,15.17
2018-04-09T06:44:48.077Z,15.07
2018-04-09T06:47:16.337Z,16.03
2018-04-09T06:49:44.585Z,15.00
2018-04-09T06:52:12.865Z,14.70
2018-04-09T06:54:41.883Z,14.30
2018-04-09T06:57:10.899Z,16.20
2018-04-09T06:59:39.153Z,15.57
2018-04-09T07:02:07.401Z,15.93
2018-04-09T07:04:35.655Z,17.03
2018-04-09T07:07:03.901Z,15.70
2018-04-09T07:09:32.163Z,16.60
2018-04-09T07:12:00.411Z,14.77
2018-04-09T07:14:29.434Z,16.77
2018-04-09T07:16:57.685Z,16.33
2018-04-09T07:19:26.709Z,17.20
2018-04-09T07:21:54.966Z,17.33
2018-04-09T07:24:23.225Z,16.67
2018-04-09T07:26:51.477Z,15.80
2018-04-09T07:29:19.741Z,16.80
2018-04-09T07:31:47.996Z,15.27
2018-04-09T07:34:16.263Z,16.87
2018-04-09T07:36:44.512Z,15.30
2018-04-09T07:39:13.549Z,16.57
2018-04-09T07:41:41.797Z,15.50
2018-04-09T07:44:10.067Z,17.53
2018-04-09T07:46:38.321Z,17.07
2018-04-09T07:49:07.349Z,16.80
2018-04-09T07:51:35.610Z,14.70
2018-04-09T07:54:04.078Z,17.03
2018-04-09T07:56:33.097Z,17.30
2018-04-09T07:59:01.355Z,16.47
2018-04-09T08:01:30.387Z,16.40
2018-04-09T08:03:58.634Z,16.20
2018-04-09T08:06:26.914Z,16.27
2018-04-09T08:08:55.202Z,16.93
2018-04-09T08:11:23.463Z,16.73
2018-04-09T08:13:51.706Z,16.10
2018-04-09T08:16:19.970Z,17.47
2018-04-09T08:18:48.222Z,18.30
2018-04-09T08:21:16.480Z,17.40
2018-04-09T08:23:44.727Z,17.60
2018-04-09T08:26:13.759Z,16.67
2018-04-09T08:28:42.005Z,17.80
2018-04-09T08:31:10.261Z,17.30
2018-04-09T08:33:39.282Z,17.43
2018-04-09T08:36:07.543Z,17.73
2018-04-09T08:38:36.554Z,18.13
2018-04-09T08:41:04.830Z,17.87
2018-04-09T08:43:33.082Z,17.80
2018-04-09T08:46:02.102Z,16.90
2018-04-09T08:48:30.357Z,17.47
2018-04-09T08:50:59.375Z,16.77
2018-04-09T08:53:27.630Z,16.90
2018-04-09T08:55:55.877Z,18.00
2018-04-09T08:58:24.141Z,17.00
2018-04-09T09:00:52.389Z,17.53
2018-04-09T09:03:20.646Z,18.00
2018-04-09T09:05:48.898Z,18.20
2018-04-09T09:08:17.923Z,17.80
2018-04-09T09:10:46.171Z,15.57
2018-04-09T09:13:15.192Z,18.50
2018-04-09T09:15:43.450Z,18.53
2018-04-09T09:18:11.712Z,16.43
2018-04-09T09:20:40.718Z,18.90
2018-04-09T09:23:08.985Z,19.67
2018-04-09T09:25:38.823Z,18.73
2018-04-09T09:28:07.073Z,21.43
2018-04-09T09:30:36.097Z,19.47
2018-04-09T09:33:04.350Z,18.70
2018-04-09T09:35:32.619Z,18.93
2018-04-09T09:38:01.634Z,17.53
2018-04-09T09:40:29.890Z,18.03
2018-04-09T09:42:58.144Z,20.33
2018-04-09T09:45:26.399Z,18.10
2018-04-09T09:47:54.646Z,15.67
2018-04-09T09:50:22.895Z,18.30
2018-04-09T09:52:51.145Z,16.63
2018-04-09T09:55:20.169Z,17.10
2018-04-09T09:57:48.421Z,16.87
2018-04-09T10:00:17.449Z,16.23
2018-04-09T10:02:51.158Z,17.60
2018-04-09T10:05:19.426Z,17.13
2018-04-09T10:07:47.692Z,16.83
2018-04-09T10:10:15.938Z,18.00
2018-04-09T10:12:44.959Z,16.80
2018-04-09T10:15:13.207Z,16.53
2018-04-09T10:17:41.469Z,17.83
2018-04-09T10:20:09.725Z,16.90
2018-04-09T10:22:37.975Z,16.63
2018-04-09T10:25:06.231Z,16.10
2018-04-09T10:27:34.490Z,15.90
2018-04-09T10:30:03.500Z,15.07
2018-04-09T10:32:31.754Z,15.30
2018-04-09T10:35:00.775Z,14.23
2018-04-09T10:37:29.029Z,15.27
2018-04-09T10:39:57.278Z,14.93
2018-04-09T10:42:25.537Z,14.73
2018-04-09T10:44:53.790Z,16.10
2018-04-09T10:47:22.066Z,14.20
2018-04-09T10:49:50.311Z,14.87
2018-04-09T10:52:19.318Z,14.90
2018-04-09T10:54:47.574Z,15.03
2018-04-09T10:57:15.826Z,15.80
2018-04-09T10:59:44.085Z,14.13
2018-04-09T11:02:12.340Z,14.90
2018-04-09T11:04:40.600Z,15.50
2018-04-09T11:07:08.845Z,14.67
2018-04-09T11:09:37.866Z,15.30
2018-04-09T11:12:06.122Z,15.50
2018-04-09T11:14:35.140Z,13.53
2018-04-09T11:17:03.389Z,14.60
2018-04-09T11:19:32.416Z,13.60
2018-04-09T11:22:00.666Z,12.80
2018-04-09T11:24:28.922Z,14.10
2018-04-09T11:26:57.173Z,14.73
2018-04-09T11:29:25.445Z,14.30
2018-04-09T11:31:53.681Z,14.70
2018-04-09T11:34:21.953Z,13.57
2018-04-09T11:36:50.211Z,13.60
2018-04-09T11:39:18.460Z,13.23
2018-04-09T11:41:46.713Z,14.33
2018-04-09T11:44:14.984Z,13.83
2018-04-09T11:46:43.245Z,13.40
2018-04-09T11:49:11.495Z,14.00
2018-04-09T11:51:40.516Z,13.90
2018-04-09T11:54:08.768Z,15.70
2018-04-09T11:56:37.028Z,14.10
2018-04-09T11:59:06.040Z,15.50
2018-04-09T12:01:34.302Z,13.10
2018-04-09T12:04:03.314Z,13.60
2018-04-09T12:06:31.575Z,14.43
2018-04-09T12:09:00.600Z,14.37
2018-04-09T12:11:28.859Z,13.57
2018-04-09T12:13:57.113Z,14.23
2018-04-09T12:16:26.144Z,13.63
2018-04-09T12:18:54.388Z,13.10
2018-04-09T12:21:23.412Z,19.87
2018-04-09T12:23:51.656Z,14.57
2018-04-09T12:26:20.680Z,13.63
2018-04-09T12:28:48.932Z,13.00
2018-04-09T12:31:17.191Z,15.30
2018-04-09T12:33:45.443Z,12.83
2018-04-09T12:36:13.707Z,14.97
2018-04-09T12:38:41.953Z,13.93
2018-04-09T12:41:10.200Z,14.73
2018-04-09T12:43:38.464Z,13.23
2018-04-09T12:46:06.780Z,14.07
2018-04-09T12:48:35.043Z,13.70
2018-04-09T12:51:03.296Z,13.37
2018-04-09T12:53:32.316Z,12.23
2018-04-09T12:56:00.568Z,12.97
2018-04-09T12:58:29.587Z,11.10
2018-04-09T13:03:25.183Z,11.67
2018-04-09T13:05:53.431Z,12.00
2018-04-09T13:08:21.696Z,11.50
2018-04-09T13:10:50.711Z,11.30
2018-04-09T13:13:18.982Z,11.47
2018-04-09T13:15:47.240Z,10.90
2018-04-09T13:18:15.508Z,9.17
2018-04-09T13:20:43.755Z,8.07
2018-04-09T13:23:12.017Z,8.93
2018-04-09T13:25:40.272Z,9.40
2018-04-09T13:28:08.519Z,10.13
2018-04-09T13:30:36.789Z,10.10
2018-04-09T13:33:05.040Z,10.17
2018-04-09T13:35:33.349Z,9.00
2018-04-09T13:38:01.619Z,10.73
2018-04-09T13:40:29.883Z,8.90
2018-04-09T13:42:58.143Z,10.97
2018-04-09T13:45:26.407Z,11.03
2018-04-09T13:47:54.667Z,11.27
2018-04-09T13:50:22.931Z,11.20
2018-04-09T13:52:51.960Z,12.97
2018-04-09T13:55:20.224Z,12.73
2018-04-09T13:57:48.481Z,12.73
2018-04-09T14:00:16.739Z,14.83
2018-04-09T14:02:44.991Z,13.87
2018-04-09T14:05:13.276Z,14.80
2018-04-09T14:07:41.527Z,15.97
2018-04-09T14:10:09.793Z,17.40
2018-04-09T14:12:38.047Z,15.30
2018-04-09T14:15:06.321Z,15.73
2018-04-09T14:17:34.567Z,16.20
2018-04-09T14:20:03.586Z,14.27
2018-04-09T14:22:31.849Z,16.07
2018-04-09T14:25:00.108Z,16.27
2018-04-09T14:27:28.375Z,15.70
2018-04-09T14:29:56.630Z,14.37
2018-04-09T14:32:24.890Z,14.67
2018-04-09T14:34:53.144Z,16.47
2018-04-09T14:37:22.171Z,16.70
2018-04-09T14:39:50.423Z,15.60
2018-04-09T14:42:18.684Z,15.73
2018-04-09T14:44:47.702Z,14.97
2018-04-09T14:47:15.967Z,17.27
2018-04-09T14:49:44.988Z,14.67
2018-04-09T14:52:13.257Z,16.70
2018-04-09T14:54:41.502Z,16.03
2018-04-09T14:57:09.763Z,14.43
2018-04-09T14:59:38.016Z,16.30
2018-04-09T15:02:06.287Z,15.50
2018-04-09T15:04:34.542Z,16.53
2018-04-09T15:07:02.811Z,16.47
2018-04-09T15:09:31.070Z,17.97
2018-04-09T15:11:59.324Z,17.17
2018-04-09T15:14:27.590Z,16.83
2018-04-09T15:16:55.839Z,16.67
2018-04-09T15:19:24.111Z,17.30
2018-04-09T15:21:53.128Z,17.20
2018-04-09T15:24:21.388Z,17.27
2018-04-09T15:26:49.657Z,17.70
2018-04-09T15:29:17.900Z,18.33
2018-04-09T15:31:46.153Z,19.43
2018-04-09T15:34:14.416Z,17.57
2018-04-09T15:36:43.436Z,18.00
2018-04-09T15:39:11.696Z,17.53
2018-04-09T15:41:40.716Z,18.40
2018-04-09T15:44:08.969Z,16.90
2018-04-09T15:46:37.984Z,18.40
2018-04-09T15:49:06.249Z,18.23
2018-04-09T15:51:34.501Z,17.77
2018-04-09T15:54:03.531Z,17.83
2018-04-09T15:56:31.780Z,17.60
2018-04-09T15:59:00.032Z,17.80
2018-04-09T16:01:28.300Z,17.10
2018-04-09T16:03:56.548Z,19.23
2018-04-09T16:06:24.819Z,18.20
2018-04-09T16:08:53.067Z,18.40
2018-04-09T16:11:21.324Z,17.37
2018-04-09T16:13:50.337Z,17.87
2018-04-09T16:16:18.595Z,17.50
2018-04-09T16:18:47.614Z,17.37
2018-04-09T16:21:15.871Z,16.77
2018-04-09T16:23:44.930Z,17.53
2018-04-09T16:26:13.155Z,18.83
2018-04-09T16:28:41.400Z,17.20
2018-04-09T16:31:09.652Z,15.67
2018-04-09T16:33:37.905Z,16.90
2018-04-09T16:36:06.156Z,17.10
2018-04-09T16:38:34.411Z,16.70
2018-04-09T16:41:03.439Z,17.77
2018-04-09T16:43:31.687Z,18.57
2018-04-09T16:46:00.705Z,18.57
2018-04-09T16:48:28.967Z,17.00
2018-04-09T16:50:57.223Z,16.10
2018-04-09T16:53:26.255Z,18.43
2018-04-09T16:55:54.503Z,17.40
2018-04-09T16:58:23.520Z,15.00
2018-04-09T17:00:51.768Z,15.47
2018-04-09T17:03:20.788Z,15.20
2018-04-09T17:05:49.045Z,15.03
2018-04-09T17:08:17.296Z,13.93
2018-04-09T17:10:46.307Z,13.90
2018-04-09T17:13:14.566Z,14.50
2018-04-09T17:15:43.591Z,14.80
2018-04-09T17:18:11.852Z,15.40
2018-04-09T17:20:40.873Z,14.60
2018-04-09T17:23:09.127Z,13.87
2018-04-09T17:25:37.381Z,14.90
2018-04-09T17:28:06.412Z,15.37
2018-04-09T17:30:34.664Z,14.97
2018-04-09T17:33:03.688Z,14.63
2018-04-09T17:35:31.950Z,15.80
2018-04-09T17:38:00.196Z,17.50
2018-04-09T17:40:29.218Z,18.17
2018-04-09T17:42:57.469Z,16.97
2018-04-09T17:48:00.093Z,14.97
2018-04-09T17:50:28.350Z,17.73
2018-04-09T17:52:56.599Z,17.17
2018-04-09T17:55:24.859Z,16.43
2018-04-09T17:57:53.109Z,16.10
2018-04-09T18:00:21.369Z,16.07
2018-04-09T18:02:49.620Z,16.67
2018-04-09T18:05:18.637Z,16.77
2018-04-09T18:07:46.890Z,16.90
2018-04-09T18:10:15.912Z,17.00
2018-04-09T18:12:44.160Z,16.20
2018-04-09T18:15:13.192Z,16.47
2018-04-09T18:17:41.437Z,15.43
2018-04-09T18:20:09.708Z,17.77
2018-04-09T18:22:38.722Z,16.70
2018-04-09T18:25:06.977Z,16.30
2018-04-09T18:27:36.000Z,15.80
2018-04-09T18:30:04.266Z,16.47
2018-04-09T18:32:32.518Z,20.50
2018-04-09T18:35:00.776Z,18.33
2018-04-09T18:37:29.030Z,16.57
2018-04-09T18:39:57.285Z,15.23
2018-04-09T18:42:25.550Z,16.53
2018-04-09T18:44:53.800Z,14.67
2018-04-09T18:47:22.823Z,14.90
2018-04-09T18:49:51.079Z,16.00
2018-04-09T18:52:20.115Z,15.37
2018-04-09T18:54:48.366Z,15.37
2018-04-09T18:57:16.625Z,15.07
2018-04-09T18:59:45.645Z,14.60
2018-04-09T19:02:13.908Z,15.60
2018-04-09T19:04:42.159Z,14.93
2018-04-09T19:07:10.424Z,16.87
2018-04-09T19:09:38.683Z,16.63
2018-04-09T19:12:06.939Z,16.17
2018-04-09T19:14:35.187Z,15.50
2018-04-09T19:17:04.224Z,15.37
2018-04-09T19:19:32.483Z,13.93
2018-04-09T19:22:00.737Z,16.53
2018-04-09T19:24:29.761Z,15.97
2018-04-09T19:26:58.008Z,14.13
2018-04-09T19:29:27.033Z,15.40
2018-04-09T19:31:55.288Z,14.97
2018-04-09T19:34:23.548Z,15.50
2018-04-09T19:40:01.940Z,16.20
2018-04-09T19:42:30.195Z,14.87
2018-04-09T19:44:58.450Z,16.40
2018-04-09T19:47:26.825Z,15.63
2018-04-09T19:49:55.091Z,16.90
2018-04-09T19:52:23.349Z,17.33
2018-04-09T19:54:51.607Z,23.97
2018-04-09T19:57:19.864Z,25.57
2018-04-09T19:59:48.248Z,17.60
2018-04-09T20:02:16.517Z,21.07
2018-04-09T20:04:44.791Z,103.13
2018-04-09T20:07:13.047Z,119.63
2018-04-09T20:09:41.312Z,60.23
2018-04-09T20:12:09.577Z,154.43
2018-04-09T20:14:38.716Z,96.43
2018-04-09T20:17:07.088Z,46.73
2018-04-09T20:19:35.371Z,24.03
2018-04-09T20:22:03.617Z,20.53
2018-04-09T20:24:31.881Z,17.43
2018-04-09T20:27:00.239Z,17.73
2018-04-09T20:29:29.275Z,16.80
2018-04-09T20:31:57.524Z,17.93
2018-04-09T20:34:25.784Z,15.63
2018-04-09T20:36:54.803Z,16.30
2018-04-09T20:39:23.094Z,16.83
2018-04-09T20:41:51.349Z,17.00
2018-04-09T20:44:19.608Z,16.37
2018-04-09T20:46:48.620Z,16.63
2018-04-09T20:49:16.922Z,15.63
2018-04-09T20:51:45.907Z,15.27
2018-04-09T20:54:14.178Z,15.30
2018-04-09T20:56:42.425Z,14.23
2018-04-09T20:59:11.459Z,14.93
2018-04-09T21:01:39.709Z,13.60
2018-04-09T21:04:07.965Z,14.90
2018-04-09T21:06:36.983Z,15.60
2018-04-09T21:09:05.272Z,16.47
2018-04-09T21:11:33.567Z,15.93
2018-04-09T21:14:01.871Z,16.13
2018-04-09T21:16:30.153Z,16.83
2018-04-09T21:18:59.191Z,15.70
2018-04-09T21:21:27.561Z,15.67
2018-04-09T21:23:55.896Z,15.40
2018-04-09T21:26:24.224Z,14.27
2018-04-09T21:28:52.535Z,16.77
2018-04-09T21:31:20.883Z,16.73
2018-04-09T21:33:49.187Z,15.40
2018-04-09T21:36:17.477Z,16.60
2018-04-09T21:38:45.728Z,17.57
2018-04-09T21:41:13.991Z,16.50
2018-04-09T21:43:42.252Z,17.80
2018-04-09T21:46:10.556Z,16.00
2018-04-09T21:48:38.766Z,17.77
2018-04-09T21:51:07.788Z,18.10
2018-04-09T21:53:36.040Z,19.27
2018-04-09T21:56:05.079Z,17.10
2018-04-09T21:58:33.336Z,16.60
2018-04-09T22:01:01.584Z,16.60
2018-04-09T22:03:30.612Z,16.90
2018-04-09T22:05:58.862Z,17.30
2018-04-09T22:08:27.889Z,16.10
2018-04-09T22:10:56.137Z,16.10
2018-04-09T22:13:25.155Z,18.87
2018-04-09T22:15:53.417Z,17.53
2018-04-09T22:18:21.676Z,15.07
2018-04-09T22:20:50.687Z,16.00
2018-04-09T22:23:18.944Z,16.70
2018-04-09T22:25:47.968Z,17.20
2018-04-09T22:28:16.232Z,14.50
2018-04-09T22:30:44.479Z,16.80
2018-04-09T22:33:13.502Z,15.00
2018-04-09T22:35:41.751Z,15.33
2018-04-09T22:38:10.773Z,15.57
2018-04-09T22:40:39.019Z,16.47
2018-04-09T22:43:08.043Z,15.53
2018-04-09T22:45:36.296Z,15.70
2018-04-09T22:48:04.549Z,17.10
2018-04-09T22:50:32.807Z,15.80
2018-04-09T22:53:01.064Z,15.33
2018-04-09T22:55:29.316Z,16.87
2018-04-09T22:57:57.563Z,16.37
2018-04-09T23:00:26.588Z,16.07
2018-04-09T23:02:54.848Z,15.47
2018-04-09T23:05:23.102Z,15.83
2018-04-09T23:07:52.113Z,16.63
2018-04-09T23:10:20.371Z,15.20
2018-04-09T23:12:49.391Z,15.00
2018-04-09T23:15:17.644Z,13.80
2018-04-09T23:17:46.659Z,15.07
2018-04-09T23:20:14.924Z,14.57
2018-04-09T23:22:43.181Z,14.60
2018-04-09T23:25:12.196Z,13.50
2018-04-09T23:27:40.471Z,13.80
2018-04-09T23:30:08.719Z,13.20
2018-04-09T23:32:36.978Z,15.00
2018-04-09T23:35:05.232Z,13.40
2018-04-09T23:37:33.493Z,12.10
2018-04-09T23:40:01.736Z,12.93
2018-04-09T23:42:30.767Z,12.53
2018-04-09T23:44:59.019Z,12.80
2018-04-09T23:47:27.284Z,13.63
2018-04-09T23:49:56.308Z,11.97
2018-04-09T23:52:24.565Z,13.40
2018-04-09T23:54:52.818Z,12.47
2018-04-09T23:57:21.840Z,12.57
2018-04-09T23:59:50.093Z,12.20
